Time;durP1;ratioP1;P1;durP2;ratioP2;P2;SDS_P1;SDS_P2;PMS_P1;PMS_P2;Temp;Humidity;BMP_temperature;BMP_pressure;BME280_temperature;BME280_humidity;BME280_pressure;Samples;Min_cycle;Max_cycle;Signal;HPM_P1;HPM_P2
2023/10/13 00:01:33;;;;;;;7.63;4.28;;;;;;;13.59;91.10;64382.22;5073696;28;20235;-53
2023/10/13 00:03:59;;;;;;;6.32;4.72;;;;;;;13.52;90.96;64376.50;5073615;28;20196;-52
2023/10/13 00:06:26;;;;;;;8.73;4.28;;;;;;;13.39;89.96;64362.78;5073858;28;20628;-53
2023/10/13 00:08:52;;;;;;;7.60;4.05;;;;;;;13.27;90.43;64350.16;5073833;28;20237;-53
2023/10/13 00:11:19;;;;;;;7.83;4.00;;;;;;;13.08;91.92;64328.75;5072454;28;20726;-56
2023/10/13 00:13:50;;;;;;;6.55;3.88;;;;;;;12.94;93.12;64313.94;5072681;28;20219;-59
2023/10/13 00:16:28;;;;;;;7.47;4.45;;;;;;;12.77;94.22;64295.28;5072372;28;20207;-55
2023/10/13 00:18:57;;;;;;;9.27;4.40;;;;;;;12.76;94.03;64294.19;5073948;28;20245;-56
2023/10/13 00:21:32;;;;;;;4.70;3.67;;;;;;;12.73;94.72;64290.88;5073629;28;20273;-55
2023/10/13 00:24:05;;;;;;;4.37;2.90;;;;;;;12.70;94.93;64285.06;5072257;28;20204;-56
2023/10/13 00:26:36;;;;;;;6.33;3.67;;;;;;;12.64;95.43;64281.03;5072297;28;20216;-63
2023/10/13 00:29:16;;;;;;;7.60;3.97;;;;;;;12.70;95.77;64284.53;5073636;28;20208;-55
2023/10/13 00:31:48;;;;;;;5.67;3.93;;;;;;;12.56;96.66;64272.78;5073275;28;20621;-54
2023/10/13 00:34:25;;;;;;;5.03;4.17;;;;;;;12.47;97.86;64262.38;5073829;28;20228;-56
2023/10/13 00:39:45;;;;;;;5.57;3.97;;;;;;;12.37;98.19;64251.41;5073596;28;20688;-54
2023/10/13 00:42:23;;;;;;;7.83;4.70;;;;;;;12.39;98.83;64251.63;5073098;28;20291;-54
2023/10/13 00:44:49;;;;;;;4.57;3.90;;;;;;;12.27;99.82;64238.47;5079568;22;20262;-55
2023/10/13 00:50:04;;;;;;;5.70;4.17;;;;;;;12.31;100.00;64239.78;5073309;28;20257;-54
2023/10/13 00:52:32;;;;;;;6.53;4.20;;;;;;;12.42;100.00;64254.38;5054962;28;20662;-56
2023/10/13 00:54:59;;;;;;;6.85;3.70;;;;;;;12.54;99.42;64270.06;5072937;28;20193;-55
2023/10/13 00:57:29;;;;;;;6.67;4.10;;;;;;;12.61;97.46;64275.19;5073190;28;20205;-53
2023/10/13 01:00:07;;;;;;;6.90;3.90;;;;;;;12.62;97.26;64281.91;5073278;28;20285;-54
2023/10/13 01:05:07;;;;;;;7.80;4.33;;;;;;;12.49;99.19;64262.03;5073185;28;20205;-54
2023/10/13 01:07:32;;;;;;;4.60;3.90;;;;;;;12.61;97.19;64280.25;5072497;28;20292;-54
2023/10/13 01:09:58;;;;;;;6.50;4.23;;;;;;;12.57;98.50;64268.28;5072902;28;20236;-58
2023/10/13 01:12:24;;;;;;;6.67;4.87;;;;;;;12.69;96.32;64286.50;5072548;28;20258;-57
2023/10/13 01:14:50;;;;;;;6.43;4.13;;;;;;;12.69;96.63;64286.50;5071447;28;20212;-54
2023/10/13 01:17:16;;;;;;;5.33;4.50;;;;;;;12.58;97.98;64271.91;5072743;28;20704;-53
2023/10/13 01:19:43;;;;;;;5.00;3.97;;;;;;;12.73;96.79;64292.88;5073100;28;20196;-53
2023/10/13 01:22:09;;;;;;;5.63;4.13;;;;;;;12.62;98.05;64279.38;5072454;28;20209;-55
2023/10/13 01:24:35;;;;;;;6.13;4.07;;;;;;;12.58;97.08;64274.97;5072976;28;20208;-54
2023/10/13 01:27:17;;;;;;;4.55;4.05;;;;;;;12.55;97.40;64271.69;5071083;28;20716;-53
2023/10/13 01:29:50;;;;;;;5.97;4.03;;;;;;;12.61;97.74;64275.19;5072606;28;20207;-54
2023/10/13 01:32:21;;;;;;;6.95;4.22;;;;;;;12.66;96.36;64278.69;5072295;28;20287;-53
2023/10/13 01:34:48;;;;;;;8.13;4.78;;;;;;;12.56;98.12;64269.72;5072492;28;20230;-53
2023/10/13 01:37:15;;;;;;;6.83;4.40;;;;;;;12.53;98.75;64268.94;5072426;28;20200;-55
2023/10/13 01:39:42;;;;;;;7.53;4.03;;;;;;;12.51;97.30;64266.75;5072760;28;20201;-52
2023/10/13 01:42:07;;;;;;;6.32;4.55;;;;;;;12.36;98.25;64248.31;5072197;28;20610;-55
2023/10/13 01:44:33;;;;;;;3.97;3.57;;;;;;;12.29;100.00;64242.63;5070996;28;20212;-54
2023/10/13 01:47:08;;;;;;;8.60;3.80;;;;;;;12.21;100.00;64233.88;5071994;28;20251;-54
2023/10/13 01:49:46;;;;;;;7.57;4.70;;;;;;;12.53;100.00;64268.94;5072222;28;20200;-54
2023/10/13 01:52:15;;;;;;;6.90;4.37;;;;;;;12.61;98.18;64275.75;5071983;28;20378;-54
2023/10/13 01:54:49;;;;;;;7.15;4.03;;;;;;;12.55;98.72;64271.16;5072233;28;20205;-54
2023/10/13 01:57:17;;;;;;;6.57;4.30;;;;;;;12.35;100.00;64249.22;5072125;28;20278;-54
2023/10/13 01:59:48;;;;;;;5.85;4.50;;;;;;;12.42;100.00;64256.91;5072180;28;20595;-56
2023/10/13 02:02:14;;;;;;;7.87;4.73;;;;;;;12.65;98.32;64279.59;5072088;28;20254;-53
2023/10/13 02:04:48;;;;;;;5.63;4.33;;;;;;;12.65;97.59;64282.13;5070838;28;20299;-56
2023/10/13 02:07:17;;;;;;;8.38;4.40;;;;;;;12.62;98.88;64276.84;5070893;28;20212;-55
2023/10/13 02:09:43;;;;;;;5.40;4.38;;;;;;;12.51;98.76;64269.84;5072311;28;20227;-54
2023/10/13 02:12:09;;;;;;;7.05;3.90;;;;;;;12.32;100.00;64241.41;5071858;28;20228;-54
2023/10/13 02:14:38;;;;;;;7.28;4.60;;;;;;;12.37;100.00;64249.44;5072146;28;20201;-55
2023/10/13 02:17:13;;;;;;;5.28;4.20;;;;;;;12.43;99.87;64256.00;5071721;28;20258;-54
2023/10/13 02:19:46;;;;;;;5.53;4.10;;;;;;;12.47;99.43;64260.41;5071152;28;20227;-53
2023/10/13 02:22:24;;;;;;;7.13;4.63;;;;;;;12.57;98.31;64270.81;5071547;28;20212;-53
2023/10/13 02:24:52;;;;;;;6.80;3.93;;;;;;;12.60;97.52;64277.16;5072239;28;20561;-54
2023/10/13 02:27:17;;;;;;;6.93;4.67;;;;;;;12.54;97.62;64265.53;5071413;28;20204;-53
2023/10/13 02:29:46;;;;;;;7.33;4.90;;;;;;;12.47;97.64;64262.38;5071916;28;20246;-54
2023/10/13 02:32:18;;;;;;;6.53;4.15;;;;;;;12.38;98.55;64252.50;5071259;28;20246;-53
2023/10/13 02:34:47;;;;;;;8.30;4.80;;;;;;;12.38;98.78;64252.50;5071943;28;20205;-53
2023/10/13 02:37:13;;;;;;;8.47;4.70;;;;;;;12.29;100.00;64243.19;5071341;28;20215;-57
2023/10/13 02:39:43;;;;;;;7.93;4.80;;;;;;;12.32;100.00;64243.41;5071377;28;20208;-54
2023/10/13 02:42:16;;;;;;;9.10;4.97;;;;;;;12.44;99.59;64259.09;5071307;28;20258;-58
2023/10/13 02:44:45;;;;;;;4.78;3.95;;;;;;;12.46;96.02;64261.81;5071446;28;20679;-54
2023/10/13 02:47:13;;;;;;;5.30;3.50;;;;;;;12.37;95.89;64253.94;5071342;28;20720;-55
2023/10/13 02:49:43;;;;;;;9.33;3.83;;;;;;;12.27;97.00;64243.53;5071889;28;20250;-55
2023/10/13 02:52:12;;;;;;;5.83;3.93;;;;;;;12.41;98.58;64251.28;5070861;28;20225;-55
2023/10/13 02:54:47;;;;;;;6.68;4.15;;;;;;;12.33;99.55;64247.03;5071134;28;20301;-55
2023/10/13 02:57:18;;;;;;;7.47;4.13;;;;;;;12.35;100.00;64246.69;5071048;28;20200;-53
2023/10/13 02:59:48;;;;;;;7.17;5.10;;;;;;;11.89;100.00;64199.34;5071505;28;20284;-53
2023/10/13 03:02:18;;;;;;;8.00;5.70;;;;;;;11.44;100.00;64150.00;5071017;28;20200;-54
2023/10/13 03:04:46;;;;;;;8.37;5.10;;;;;;;11.64;100.00;64169.94;5071191;28;20215;-53
2023/10/13 03:07:15;;;;;;;7.70;5.47;;;;;;;11.78;100.00;64187.81;5070863;28;20209;-55
2023/10/13 03:09:50;;;;;;;7.70;5.60;;;;;;;11.56;100.00;64160.63;5071042;28;20185;-59
2023/10/13 03:12:15;;;;;;;8.70;5.50;;;;;;;11.78;100.00;64190.34;5066354;22;20225;-56
2023/10/13 03:14:41;;;;;;;9.37;5.50;;;;;;;12.23;100.00;64236.06;5049706;28;20227;-56
2023/10/13 03:17:09;;;;;;;9.30;5.40;;;;;;;12.12;100.00;64224.00;5051022;28;20210;-57
2023/10/13 03:19:36;;;;;;;7.80;5.47;;;;;;;12.18;100.00;64225.53;5050923;28;20200;-56
2023/10/13 03:22:11;;;;;;;10.30;5.80;;;;;;;12.08;100.00;64219.63;5051197;28;20213;-54
2023/10/13 03:24:44;;;;;;;10.18;5.88;;;;;;;11.92;100.00;64202.63;5050930;28;20212;-53
2023/10/13 03:27:11;;;;;;;12.27;7.00;;;;;;;11.59;100.00;64167.00;5049864;28;20229;-54
2023/10/13 03:29:42;;;;;;;23.07;7.27;;;;;;;12.07;100.00;64219.06;5050953;28;20201;-55
2023/10/13 03:32:14;;;;;;;13.07;6.77;;;;;;;12.25;100.00;64238.81;5050610;28;20323;-55
2023/10/13 03:34:49;;;;;;;14.90;7.47;;;;;;;12.15;100.00;64225.31;5050613;28;20202;-54
2023/10/13 03:37:35;;;;;;;16.27;8.43;;;;;;;11.99;100.00;64210.28;5049449;28;20754;-55
2023/10/13 03:40:05;;;;;;;9.37;5.77;;;;;;;11.96;100.00;64207.00;5050727;28;20686;-55
2023/10/13 03:42:32;;;;;;;10.40;5.40;;;;;;;11.90;100.00;64195.38;5049683;28;20224;-56
2023/10/13 03:44:57;;;;;;;7.77;4.33;;;;;;;11.76;100.00;64182.56;5050457;28;20197;-53
2023/10/13 03:47:32;;;;;;;9.33;5.37;;;;;;;11.68;100.00;64174.34;5050384;28;20783;-58
2023/10/13 03:50:15;;;;;;;11.73;4.83;;;;;;;11.55;100.00;64162.59;5050463;28;20232;-55
2023/10/13 03:52:41;;;;;;;7.60;4.30;;;;;;;11.41;100.00;64147.25;5050430;28;20298;-54
2023/10/13 03:55:07;;;;;;;8.63;4.80;;;;;;;11.43;100.00;64146.91;5050487;28;20672;-55
2023/10/13 03:57:39;;;;;;;7.93;4.87;;;;;;;11.47;100.00;64150.78;5048934;28;20205;-54
2023/10/13 04:00:09;;;;;;;7.07;5.07;;;;;;;11.47;100.00;64151.31;5050266;28;20209;-53
2023/10/13 04:02:36;;;;;;;6.63;4.40;;;;;;;11.43;100.00;64149.44;5050451;28;20256;-54
2023/10/13 04:05:09;;;;;;;7.93;4.90;;;;;;;11.30;100.00;64132.13;5050217;28;20216;-53
2023/10/13 04:08:08;;;;;;;8.90;4.80;;;;;;;11.30;100.00;64135.22;5048956;28;20226;-53
2023/10/13 04:16:14;;;;;;;7.23;4.83;;;;;;;11.31;100.00;64135.75;5050094;28;20297;-54
2023/10/13 04:18:46;;;;;;;7.07;5.27;;;;;;;11.39;100.00;64139.47;5050102;28;20221;-59
2023/10/13 04:21:36;;;;;;;6.60;4.83;;;;;;;11.43;100.00;64151.44;5049952;28;20201;-54
2023/10/13 04:24:28;;;;;;;9.93;5.20;;;;;;;11.35;100.00;64140.16;5049912;28;20229;-54
2023/10/13 04:29:48;;;;;;;7.00;4.60;;;;;;;11.47;100.00;64150.78;5050387;28;20243;-54
2023/10/13 04:32:32;;;;;;;9.97;5.63;;;;;;;11.70;100.00;64179.06;5048845;28;20224;-54
2023/10/13 04:37:52;;;;;;;14.10;6.07;;;;;;;11.63;100.00;64171.38;5050426;28;20213;-54
2023/10/13 04:40:25;;;;;;;11.33;6.10;;;;;;;11.59;100.00;64163.91;5050068;28;20201;-53
2023/10/13 04:42:57;;;;;;;7.13;5.30;;;;;;;11.61;100.00;64169.19;5052822;28;20708;-54
2023/10/13 04:47:57;;;;;;;12.20;6.43;;;;;;;11.37;100.00;64142.88;5053622;28;20299;-54
2023/10/13 04:50:34;;;;;;;9.27;6.57;;;;;;;11.52;100.00;64158.75;5053137;28;20173;-53
2023/10/13 04:53:13;;;;;;;13.20;7.37;;;;;;;11.73;100.00;64184.88;5051505;28;20607;-53
2023/10/13 05:47:46;;;;;;;17.83;7.87;;;;;;;12.08;100.00;64217.63;5052343;28;20286;-57
2023/10/13 06:28:41;;;;;;;13.43;8.55;;;;;;;12.63;100.00;64279.91;5052042;28;20252;-57
2023/10/13 06:31:29;;;;;;;14.67;8.63;;;;;;;12.57;100.00;64268.84;5051534;28;20651;-62
2023/10/13 06:33:55;;;;;;;15.73;7.75;;;;;;;12.63;100.00;64279.91;5051672;28;20172;-58
2023/10/13 06:36:21;;;;;;;15.43;7.80;;;;;;;12.80;100.00;64296.06;5051616;28;20217;-59
2023/10/13 06:38:54;;;;;;;19.70;9.10;;;;;;;12.80;100.00;64298.03;5051607;28;20555;-56
2023/10/13 06:41:30;;;;;;;14.30;9.80;;;;;;;12.81;100.00;64299.66;5049891;28;20233;-58
2023/10/13 06:44:05;;;;;;;12.93;8.82;;;;;;;12.82;100.00;64297.69;5050124;28;20205;-59
2023/10/13 06:46:33;;;;;;;13.47;8.30;;;;;;;12.84;100.00;64304.94;5051665;28;20220;-59
2023/10/13 06:49:02;;;;;;;13.68;8.93;;;;;;;12.93;100.00;64315.34;5049920;28;20212;-58
2023/10/13 06:51:31;;;;;;;15.98;8.10;;;;;;;12.98;100.00;64315.78;5069884;22;20690;-59
2023/10/13 06:53:56;;;;;;;15.50;8.65;;;;;;;13.01;100.00;64321.59;5071283;28;20361;-57
2023/10/13 06:56:26;;;;;;;15.40;9.07;;;;;;;13.16;100.00;64335.56;5071269;28;20754;-59
2023/10/13 06:58:59;;;;;;;15.38;9.02;;;;;;;13.22;100.00;64344.69;5069999;28;20582;-57
2023/10/13 07:01:27;;;;;;;16.85;9.80;;;;;;;13.27;100.00;64350.16;5071255;28;20212;-58
2023/10/13 07:03:53;;;;;;;15.82;9.02;;;;;;;13.40;99.55;64361.91;5070779;28;20246;-58
2023/10/13 07:06:20;;;;;;;15.40;9.07;;;;;;;13.46;99.89;64371.03;5071409;28;20235;-58
2023/10/13 07:08:51;;;;;;;17.27;10.25;;;;;;;13.75;100.00;64399.78;5071303;28;20711;-58
2023/10/13 07:11:32;;;;;;;15.77;8.13;;;;;;;14.07;95.56;64434.38;5069644;28;20221;-58
2023/10/13 07:14:09;;;;;;;19.65;9.93;;;;;;;14.21;93.84;64452.84;5071041;28;20223;-58
2023/10/13 07:16:46;;;;;;;17.67;9.25;;;;;;;14.30;93.92;64462.22;5069937;28;20219;-59
2023/10/13 07:19:16;;;;;;;13.27;9.55;;;;;;;14.42;92.76;64475.38;5069745;28;20562;-58
2023/10/13 07:21:45;;;;;;;18.85;9.10;;;;;;;14.51;92.67;64485.28;5069978;28;20216;-57
2023/10/13 07:24:13;;;;;;;18.98;9.38;;;;;;;14.60;91.81;64492.63;5070963;28;20177;-58
2023/10/13 07:26:47;;;;;;;15.73;9.50;;;;;;;14.66;92.99;64498.66;5071233;28;20224;-57
2023/10/13 07:29:18;;;;;;;17.73;10.43;;;;;;;14.80;93.93;64517.16;5070977;28;20759;-58
2023/10/13 07:31:44;;;;;;;15.75;9.65;;;;;;;14.75;93.76;64508.56;5069412;28;20240;-57
2023/10/13 07:34:24;;;;;;;19.42;10.75;;;;;;;14.81;92.44;64515.16;5070717;28;20205;-58
2023/10/13 07:37:00;;;;;;;20.85;10.70;;;;;;;15.00;92.15;64536.59;5069472;28;20227;-56
2023/10/13 07:39:40;;;;;;;18.15;10.68;;;;;;;15.14;89.65;64551.44;5070856;28;20283;-60
2023/10/13 07:42:05;;;;;;;20.48;11.18;;;;;;;15.30;90.79;64569.03;5070378;28;20358;-57
2023/10/13 07:44:33;;;;;;;17.15;10.65;;;;;;;15.43;86.63;64582.81;5070507;28;20272;-58
2023/10/13 07:47:07;;;;;;;21.35;11.50;;;;;;;15.38;86.56;64577.28;5069233;28;20208;-57
2023/10/13 07:49:37;;;;;;;19.45;9.95;;;;;;;15.45;87.11;64587.53;5070673;28;20200;-57
2023/10/13 07:54:55;;;;;;;36.00;12.93;;;;;;;15.73;85.92;64616.34;5070765;28;20212;-57
2023/10/13 07:57:29;;;;;;;23.98;13.18;;;;;;;15.86;86.08;64630.66;5069021;28;20219;-59
2023/10/13 08:00:26;;;;;;;26.60;14.73;;;;;;;15.89;84.26;64633.97;5069136;28;20762;-57
2023/10/13 08:03:31;;;;;;;25.80;14.32;;;;;;;16.00;83.45;64645.50;5070371;28;20205;-61
2023/10/13 08:06:06;;;;;;;28.75;13.23;;;;;;;16.09;83.61;64654.84;5070449;28;20220;-58
2023/10/13 08:08:39;;;;;;;30.52;13.63;;;;;;;16.23;83.07;64670.25;5070649;28;20709;-56
2023/10/13 08:11:24;;;;;;;29.48;13.57;;;;;;;16.30;82.34;64677.97;5070407;28;20217;-57
2023/10/13 08:13:59;;;;;;;19.98;12.25;;;;;;;16.84;80.38;64736.91;5070320;28;20235;-57
2023/10/13 08:19:18;;;;;;;26.73;12.77;;;;;;;17.45;76.68;64804.66;5074091;28;20215;-57
2023/10/13 08:22:14;;;;;;;26.15;13.32;;;;;;;17.41;75.54;64800.22;5073561;28;20213;-58
2023/10/13 08:37:34;;;;;;;26.33;11.75;;;;;;;17.79;72.85;64838.50;5073308;28;20218;-55
2023/10/13 08:43:09;;;;;;;20.63;11.75;;;;;;;18.71;69.15;64939.41;5072092;28;20659;-55
2023/10/13 08:53:28;;;;;;;23.58;11.90;;;;;;;19.51;63.12;65029.75;5073224;28;20292;-55
2023/10/13 08:56:14;;;;;;;25.02;11.43;;;;;;;19.13;63.22;64986.31;5073239;28;20197;-57
2023/10/13 09:01:48;;;;;;;24.08;11.95;;;;;;;18.71;66.46;64941.97;5073003;28;20291;-56
2023/10/13 09:04:38;;;;;;;17.75;11.43;;;;;;;19.01;65.12;64975.06;5071500;28;20208;-56
2023/10/13 09:13:00;;;;;;;20.88;11.32;;;;;;;20.45;59.69;65130.47;5072793;28;20223;-56
2023/10/13 09:18:15;;;;;;;22.48;12.45;;;;;;;20.78;58.54;65164.94;5073117;28;20208;-56
2023/10/13 09:23:24;;;;;;;19.73;11.13;;;;;;;21.99;56.41;65300.28;5072662;28;20658;-58
2023/10/13 09:26:33;;;;;;;19.15;12.35;;;;;;;21.77;55.65;65275.34;5072709;28;20224;-57
2023/10/13 09:28:39;;;;;;;20.10;12.60;;;;;;;22.33;56.12;65337.91;5066626;28;20212;-57
2023/10/13 09:31:09;;;;;;;27.60;12.73;;;;;;;22.68;54.02;65375.56;5072480;28;20209;-56
2023/10/13 09:33:36;;;;;;;20.48;12.25;;;;;;;22.87;50.99;65394.00;5055472;28;20200;-55
2023/10/13 09:36:06;;;;;;;19.85;12.40;;;;;;;22.26;51.96;65332.72;5072165;28;20201;-53
2023/10/13 09:38:36;;;;;;;22.85;12.27;;;;;;;21.74;53.03;65273.13;5072372;28;20208;-55
2023/10/13 09:41:18;;;;;;;16.77;10.73;;;;;;;22.07;51.94;65309.13;5072639;28;20212;-56
2023/10/13 09:43:45;;;;;;;18.77;10.98;;;;;;;21.81;52.17;65279.78;5072292;28;20587;-56
2023/10/13 09:46:18;;;;;;;18.48;10.20;;;;;;;22.15;51.47;65319.97;5072649;28;20212;-55
2023/10/13 09:49:04;;;;;;;22.02;10.95;;;;;;;22.14;50.91;65318.88;5072574;28;20231;-56
2023/10/13 09:51:31;;;;;;;21.90;11.90;;;;;;;22.32;51.27;65336.78;5070950;28;20256;-55
2023/10/13 09:54:06;;;;;;;17.45;10.00;;;;;;;22.02;51.02;65303.03;5072174;28;20266;-56
2023/10/13 09:56:51;;;;;;;17.77;10.10;;;;;;;21.64;51.02;65262.06;5070898;28;20770;-56
2023/10/13 09:59:24;;;;;;;20.80;11.15;;;;;;;21.77;50.53;65279.00;5072217;28;20203;-54
2023/10/13 10:01:51;;;;;;;19.35;10.15;;;;;;;21.76;51.15;65274.78;5072491;28;20208;-55
2023/10/13 10:04:19;;;;;;;13.73;9.00;;;;;;;21.87;51.89;65287.00;5072394;28;20207;-53
2023/10/13 10:06:53;;;;;;;15.23;8.75;;;;;;;22.31;50.21;65335.13;5070653;28;20253;-54
2023/10/13 10:09:22;;;;;;;14.98;9.43;;;;;;;23.01;52.89;65412.09;5071954;28;20201;-56
2023/10/13 10:12:09;;;;;;;22.48;10.80;;;;;;;23.26;47.41;65437.22;5071512;28;20248;-56
2023/10/13 10:15:01;;;;;;;20.63;9.40;;;;;;;23.32;46.53;65447.03;5070407;28;20204;-55
2023/10/13 10:17:29;;;;;;;16.02;9.10;;;;;;;23.50;46.16;65465.84;5071471;28;20205;-56
2023/10/13 10:19:59;;;;;;;16.50;8.90;;;;;;;23.44;44.88;65459.19;5071837;28;20234;-54
2023/10/13 10:22:38;;;;;;;20.35;8.90;;;;;;;23.86;45.49;65506.31;5071689;28;20212;-56
2023/10/13 10:25:24;;;;;;;12.15;7.70;;;;;;;23.94;45.35;65514.59;5071794;28;20193;-53
2023/10/13 10:28:00;;;;;;;15.38;8.07;;;;;;;24.24;43.20;65547.88;5071991;28;20208;-57
2023/10/13 10:30:33;;;;;;;16.55;8.27;;;;;;;24.31;43.68;65552.53;5071712;28;20209;-54
2023/10/13 10:32:59;;;;;;;15.73;8.23;;;;;;;24.70;43.34;65598.94;5071531;28;20216;-54
2023/10/13 10:35:32;;;;;;;18.92;7.75;;;;;;;25.15;40.14;65645.19;5071582;28;20605;-53
2023/10/13 10:38:11;;;;;;;13.68;7.63;;;;;;;25.19;40.56;65652.19;5071302;28;20212;-54
2023/10/13 10:41:00;;;;;;;14.10;7.50;;;;;;;25.64;39.58;65700.13;5069557;28;20211;-54
2023/10/13 10:43:41;;;;;;;18.30;8.40;;;;;;;26.10;40.05;65752.72;5070079;28;20258;-53
2023/10/13 10:46:16;;;;;;;11.13;5.80;;;;;;;26.01;37.83;65743.25;5069975;28;20252;-54
2023/10/13 10:48:44;;;;;;;10.63;4.30;;;;;;;25.39;37.35;65674.41;5071316;28;20196;-53
2023/10/13 10:53:46;;;;;;;11.48;4.88;;;;;;;26.04;38.61;65746.03;5071446;28;20200;-54
2023/10/13 10:56:20;;;;;;;8.52;4.32;;;;;;;25.83;37.46;65723.25;5069906;28;20212;-54
2023/10/13 10:58:47;;;;;;;9.52;4.15;;;;;;;25.27;38.09;65661.09;5071549;28;20651;-54
2023/10/13 11:01:20;;;;;;;14.00;5.18;;;;;;;25.58;36.98;65692.91;5070038;28;20205;-56
2023/10/13 11:03:59;;;;;;;7.53;4.65;;;;;;;24.86;37.48;65614.13;5069915;28;20208;-56
2023/10/13 11:06:26;;;;;;;9.32;4.28;;;;;;;25.10;38.07;65642.75;5071364;28;20216;-56
2023/10/13 11:11:52;;;;;;;6.45;4.10;;;;;;;25.37;37.01;65672.72;5071504;28;20298;-54
2023/10/13 11:14:28;;;;;;;8.57;4.50;;;;;;;24.99;38.91;65630.56;5070927;28;20573;-53
2023/10/13 11:17:13;;;;;;;8.55;4.75;;;;;;;25.11;37.89;65643.88;5071648;28;20318;-57
2023/10/13 11:19:41;;;;;;;8.77;4.25;;;;;;;25.77;38.26;65717.16;5071191;28;20193;-54
2023/10/13 11:25:14;;;;;;;8.30;4.47;;;;;;;25.64;37.00;65705.31;5070905;28;20180;-53
2023/10/13 11:27:44;;;;;;;7.65;3.97;;;;;;;25.61;36.94;65698.84;5069460;28;20724;-52
2023/10/13 11:30:14;;;;;;;9.32;3.70;;;;;;;25.35;36.79;65669.97;5069459;28;20584;-53
2023/10/13 11:32:43;;;;;;;9.25;4.22;;;;;;;26.11;35.81;65753.81;5069352;28;20212;-56
2023/10/13 11:35:20;;;;;;;7.38;3.40;;;;;;;25.79;35.92;65716.81;5070694;28;20208;-56
2023/10/13 11:37:56;;;;;;;6.38;3.30;;;;;;;25.92;34.86;65730.66;5069445;28;20208;-53
2023/10/13 11:40:43;;;;;;;7.35;3.13;;;;;;;25.47;35.07;65683.31;5070406;28;20261;-59
2023/10/13 11:43:17;;;;;;;7.25;3.42;;;;;;;25.75;35.59;65714.38;5069478;28;20213;-54
2023/10/13 11:46:12;;;;;;;9.00;3.10;;;;;;;25.65;35.88;65703.81;5070777;28;20211;-58
2023/10/13 11:48:41;;;;;;;5.95;3.13;;;;;;;25.70;34.81;65706.25;5070617;28;20257;-55
2023/10/13 11:51:25;;;;;;;4.55;2.60;;;;;;;25.65;34.70;65703.28;5070996;28;20305;-53
2023/10/13 11:53:52;;;;;;;3.42;2.90;;;;;;;25.80;35.03;65717.34;5073979;28;20670;-52
2023/10/13 11:56:22;;;;;;;8.60;2.90;;;;;;;25.98;34.11;65739.91;5072556;28;20205;-54
2023/10/13 11:58:48;;;;;;;4.10;2.38;;;;;;;25.57;34.68;65694.94;5074000;28;20188;-54
2023/10/13 12:11:45;;;;;;;8.35;3.25;;;;;;;26.55;34.49;65797.53;5073654;28;20255;-54
2023/10/13 12:14:37;;;;;;;7.43;3.00;;;;;;;26.77;33.91;65821.44;5072677;28;20196;-57
2023/10/13 12:17:04;;;;;;;6.25;2.70;;;;;;;26.75;32.96;65821.78;5072777;28;20213;-56
2023/10/13 12:19:30;;;;;;;5.93;2.88;;;;;;;26.29;33.62;65771.78;5073929;28;20201;-55
2023/10/13 12:21:57;;;;;;;7.85;2.97;;;;;;;26.39;34.24;65782.91;5073967;28;20212;-57
2023/10/13 12:24:39;;;;;;;4.82;2.85;;;;;;;26.57;36.20;65802.88;5073687;28;20258;-55
2023/10/13 12:27:23;;;;;;;5.60;2.83;;;;;;;26.58;34.45;65806.59;5072125;28;20207;-56
2023/10/13 12:29:51;;;;;;;3.65;2.67;;;;;;;26.50;34.30;65797.69;5073567;28;20200;-55
2023/10/13 12:32:30;;;;;;;7.53;3.50;;;;;;;26.76;34.49;65823.47;5073355;28;20220;-56
2023/10/13 12:37:49;;;;;;;8.02;3.28;;;;;;;26.72;33.13;65818.47;5073733;28;20205;-54
2023/10/13 12:49:07;;;;;;;7.75;3.00;;;;;;;26.48;33.60;65798.06;5073471;28;20211;-55
2023/10/13 12:54:13;;;;;;;13.90;4.47;;;;;;;26.63;34.62;65809.56;5073463;28;20228;-58
2023/10/13 12:56:41;;;;;;;7.43;3.15;;;;;;;26.60;33.54;65808.25;5072152;28;20216;-57
2023/10/13 12:59:09;;;;;;;5.72;2.78;;;;;;;26.59;34.48;65805.13;5072153;28;20196;-57
2023/10/13 13:01:35;;;;;;;8.18;3.20;;;;;;;26.55;34.35;65800.09;5073051;28;20216;-57
2023/10/13 13:04:03;;;;;;;4.03;2.70;;;;;;;26.59;33.92;65802.53;5072820;28;20169;-57
2023/10/13 13:06:30;;;;;;;5.75;3.30;;;;;;;26.74;33.70;65823.28;5071811;28;20653;-54
2023/10/13 13:08:57;;;;;;;8.32;2.95;;;;;;;26.78;33.08;65825.69;5072944;28;20682;-54
2023/10/13 13:11:24;;;;;;;5.75;3.28;;;;;;;26.68;34.25;65816.59;5071296;28;20224;-55
2023/10/13 13:13:50;;;;;;;7.43;3.92;;;;;;;26.65;33.70;65811.22;5072564;28;20196;-54
2023/10/13 13:16:23;;;;;;;6.15;3.20;;;;;;;26.58;33.65;65804.00;5072644;28;20207;-52
2023/10/13 13:18:54;;;;;;;9.30;3.42;;;;;;;26.35;33.75;65780.47;5072627;28;20197;-53
2023/10/13 13:21:22;;;;;;;12.43;2.88;;;;;;;26.21;33.54;65765.50;5072972;28;20225;-55
2023/10/13 13:23:49;;;;;;;6.45;3.10;;;;;;;26.19;33.83;65762.69;5072599;28;20678;-58
2023/10/13 13:26:17;;;;;;;6.32;3.35;;;;;;;26.06;34.44;65748.78;5072447;28;20314;-56
2023/10/13 13:28:51;;;;;;;5.68;2.95;;;;;;;25.89;34.33;65729.94;5072365;28;20655;-57
2023/10/13 13:31:17;;;;;;;7.25;3.40;;;;;;;25.90;34.39;65731.03;5072771;28;20228;-58
2023/10/13 13:33:43;;;;;;;10.73;3.45;;;;;;;26.00;34.57;65736.97;5072467;28;20741;-55
2023/10/13 13:36:15;;;;;;;6.50;3.13;;;;;;;26.10;34.48;65752.72;5072464;28;20227;-54
2023/10/13 13:38:45;;;;;;;7.75;3.65;;;;;;;26.18;34.60;65759.03;5072438;28;20205;-55
2023/10/13 13:41:15;;;;;;;8.82;3.38;;;;;;;26.23;34.27;65765.13;5072168;28;20580;-56
2023/10/13 13:43:50;;;;;;;5.88;2.90;;;;;;;26.14;33.77;65757.69;5072000;28;20200;-53
2023/10/13 13:46:24;;;;;;;8.57;2.95;;;;;;;26.06;34.28;65753.97;5071369;28;20330;-53
2023/10/13 13:48:57;;;;;;;9.93;2.95;;;;;;;26.06;35.20;65748.78;5072260;28;20697;-53
2023/10/13 13:51:27;;;;;;;8.07;2.70;;;;;;;26.09;34.94;65752.16;5071114;28;20295;-56
2023/10/13 13:53:55;;;;;;;7.97;3.33;;;;;;;26.08;35.74;65751.03;5072017;28;20745;-53
2023/10/13 13:56:21;;;;;;;9.15;2.92;;;;;;;25.99;35.45;65741.03;5071866;28;20243;-53
2023/10/13 13:58:53;;;;;;;8.57;3.20;;;;;;;26.17;35.42;65760.47;5070621;28;20208;-54
2023/10/13 14:01:19;;;;;;;5.30;2.83;;;;;;;25.96;35.32;65737.16;5071649;28;20291;-53
2023/10/13 14:03:46;;;;;;;11.65;3.72;;;;;;;25.82;35.48;65722.16;5072033;28;20197;-54
2023/10/13 14:06:23;;;;;;;7.43;3.35;;;;;;;25.86;34.91;65726.59;5070560;28;20201;-55
2023/10/13 14:08:57;;;;;;;9.75;3.58;;;;;;;25.79;35.77;65719.38;5072180;28;20215;-58
2023/10/13 14:14:11;;;;;;;6.22;3.25;;;;;;;25.73;35.86;65709.59;5071065;28;20215;-56
2023/10/13 14:16:44;;;;;;;11.05;3.75;;;;;;;25.69;36.01;65708.25;5072147;28;20448;-56
2023/10/13 14:19:28;;;;;;;12.23;4.32;;;;;;;25.71;35.85;65709.94;5071782;28;20216;-56
2023/10/13 14:21:55;;;;;;;9.43;3.55;;;;;;;25.74;36.85;65710.69;5070387;28;20273;-54
2023/10/13 14:24:28;;;;;;;12.60;4.32;;;;;;;25.74;36.61;65713.25;5072060;28;20200;-55
2023/10/13 14:27:17;;;;;;;9.35;3.60;;;;;;;25.73;37.04;65712.69;5070129;28;20216;-54
2023/10/13 14:29:43;;;;;;;9.18;3.92;;;;;;;25.80;35.74;65719.94;5070317;28;20201;-57
2023/10/13 14:32:14;;;;;;;8.15;3.83;;;;;;;25.79;35.37;65718.81;5071633;28;20239;-56
2023/10/13 14:34:41;;;;;;;6.70;3.40;;;;;;;25.63;35.52;65701.06;5070221;28;20204;-56
2023/10/13 14:37:07;;;;;;;9.30;3.50;;;;;;;25.48;35.89;65684.41;5070649;28;20282;-57
2023/10/13 14:39:36;;;;;;;6.68;3.53;;;;;;;25.28;37.09;65659.59;5070026;28;20262;-56
2023/10/13 14:42:05;;;;;;;6.90;3.50;;;;;;;25.22;36.71;65652.94;5070037;28;20209;-57
2023/10/13 14:44:35;;;;;;;9.02;3.30;;;;;;;25.15;36.86;65645.19;5053675;28;20270;-59
2023/10/13 14:47:05;;;;;;;10.77;3.22;;;;;;;25.04;36.90;65633.53;5071166;28;20299;-56
2023/10/13 14:49:31;;;;;;;6.93;3.58;;;;;;;24.95;37.16;65623.53;5071161;28;20204;-60
2023/10/13 14:51:59;;;;;;;8.48;3.67;;;;;;;24.88;37.19;65618.34;5071480;28;20274;-54
2023/10/13 14:54:33;;;;;;;7.68;3.65;;;;;;;24.73;37.20;65599.69;5071288;28;20619;-57
2023/10/13 14:57:00;;;;;;;6.95;3.60;;;;;;;24.63;37.21;65591.16;5071202;28;20215;-57
2023/10/13 14:59:27;;;;;;;7.75;3.50;;;;;;;24.49;38.15;65575.06;5071220;28;20250;-56
2023/10/13 15:01:53;;;;;;;6.15;3.50;;;;;;;24.39;38.23;65564.53;5069845;28;20217;-57